createdAt,value
2019-01-12T00:00:49.339Z,32.10
2019-01-12T00:03:18.391Z,34.60
2019-01-12T00:05:47.482Z,32.47
2019-01-12T00:08:16.644Z,31.37
2019-01-12T00:10:46.037Z,32.93
2019-01-12T00:13:15.089Z,35.90
2019-01-12T00:15:44.156Z,30.80
2019-01-12T00:18:13.579Z,46.20
2019-01-12T00:20:42.999Z,59.30
2019-01-12T00:23:12.147Z,82.67
2019-01-12T00:25:41.523Z,33.93
2019-01-12T00:28:10.578Z,31.73
2019-01-12T00:30:39.897Z,34.60
2019-01-12T00:33:11.827Z,35.93
2019-01-12T00:35:40.988Z,31.20
2019-01-12T00:38:10.367Z,36.70
2019-01-12T00:40:39.518Z,32.47
2019-01-12T00:43:09.037Z,27.50
2019-01-12T00:45:38.106Z,25.50
2019-01-12T00:48:07.244Z,26.13
2019-01-12T00:50:36.375Z,30.77
2019-01-12T00:53:05.519Z,36.67
2019-01-12T00:55:34.569Z,28.07
2019-01-12T00:58:03.726Z,34.23
2019-01-12T01:00:32.884Z,30.73
2019-01-12T01:03:02.010Z,31.43
2019-01-12T01:05:31.082Z,31.33
2019-01-12T01:08:00.215Z,26.97
2019-01-12T01:10:29.334Z,26.90
2019-01-12T01:12:58.638Z,27.10
2019-01-12T01:15:27.772Z,24.53
2019-01-12T01:17:57.166Z,27.60
2019-01-12T01:20:26.311Z,24.47
2019-01-12T01:22:55.453Z,25.43
2019-01-12T01:25:24.887Z,27.87
2019-01-12T01:27:54.014Z,21.63
2019-01-12T01:30:23.163Z,22.00
2019-01-12T01:32:52.291Z,22.37
2019-01-12T01:35:21.423Z,25.70
2019-01-12T01:37:50.586Z,23.37
2019-01-12T01:40:19.710Z,20.37
2019-01-12T01:42:48.764Z,20.50
2019-01-12T01:45:17.902Z,23.80
2019-01-12T01:47:47.053Z,22.73
2019-01-12T01:50:16.890Z,24.20
2019-01-12T01:52:46.019Z,27.87
2019-01-12T01:55:15.162Z,29.27
2019-01-12T01:57:44.285Z,31.20
2019-01-12T02:00:14.738Z,26.60
2019-01-12T02:02:43.894Z,28.37
2019-01-12T02:05:13.326Z,31.47
2019-01-12T02:07:42.458Z,30.53
2019-01-12T02:10:13.505Z,28.97
2019-01-12T02:12:42.928Z,32.63
2019-01-12T02:15:12.182Z,29.80
2019-01-12T02:17:41.505Z,27.60
2019-01-12T02:20:10.668Z,26.80
2019-01-12T02:22:39.800Z,32.17
2019-01-12T02:25:08.944Z,30.50
2019-01-12T02:27:38.016Z,29.87
2019-01-12T02:30:09.537Z,32.83
2019-01-12T02:32:38.664Z,29.17
2019-01-12T02:35:08.059Z,31.70
2019-01-12T02:37:37.214Z,34.97
2019-01-12T02:40:06.368Z,37.87
2019-01-12T02:42:35.503Z,44.90
2019-01-12T02:45:05.572Z,39.57
2019-01-12T02:47:34.899Z,36.03
2019-01-12T02:50:05.067Z,39.97
2019-01-12T02:52:34.238Z,40.30
2019-01-12T02:55:08.636Z,34.63
2019-01-12T02:57:34.332Z,42.80
2019-01-12T03:00:05.159Z,35.03
2019-01-12T03:02:34.311Z,33.77
2019-01-12T03:05:04.380Z,35.03
2019-01-12T03:07:33.527Z,35.37
2019-01-12T03:10:02.695Z,37.43
2019-01-12T03:12:32.091Z,37.97
2019-01-12T03:15:01.171Z,35.87
2019-01-12T03:17:30.339Z,30.70
2019-01-12T03:19:59.444Z,26.30
2019-01-12T03:22:28.556Z,30.20
2019-01-12T03:24:57.639Z,26.37
2019-01-12T03:27:26.719Z,28.80
2019-01-12T03:29:55.805Z,32.27
2019-01-12T03:32:25.261Z,28.17
2019-01-12T03:34:54.669Z,25.37
2019-01-12T03:37:23.805Z,26.40
2019-01-12T03:39:53.223Z,36.33
2019-01-12T03:42:22.832Z,27.50
2019-01-12T03:44:51.995Z,26.10
2019-01-12T03:47:21.266Z,28.33
2019-01-12T03:49:50.450Z,30.50
2019-01-12T03:52:19.854Z,30.57
2019-01-12T03:54:49.350Z,32.60
2019-01-12T03:57:18.505Z,28.33
2019-01-12T03:59:47.739Z,27.23
2019-01-12T04:02:17.360Z,29.13
2019-01-12T04:04:46.816Z,29.17
2019-01-12T04:07:16.169Z,33.43
2019-01-12T04:09:45.263Z,31.33
2019-01-12T04:12:14.366Z,29.63
2019-01-12T04:14:43.457Z,29.87
2019-01-12T04:17:12.627Z,24.97
2019-01-12T04:19:41.799Z,34.03
2019-01-12T04:22:10.961Z,34.03
2019-01-12T04:24:40.130Z,31.30
2019-01-12T04:27:09.309Z,34.57
2019-01-12T04:29:38.467Z,32.47
2019-01-12T04:32:07.618Z,30.80
2019-01-12T04:34:36.767Z,29.97
2019-01-12T04:37:05.928Z,33.67
2019-01-12T04:39:35.011Z,31.27
2019-01-12T04:42:04.276Z,31.80
2019-01-12T04:44:33.427Z,28.50
2019-01-12T04:47:02.629Z,30.60
2019-01-12T04:49:31.685Z,31.13
2019-01-12T04:52:00.827Z,29.60
2019-01-12T04:54:29.932Z,38.93
2019-01-12T04:56:59.412Z,31.03
2019-01-12T04:59:28.581Z,27.67
2019-01-12T05:01:57.727Z,30.87
2019-01-12T05:04:27.254Z,28.43
2019-01-12T05:06:56.606Z,26.27
2019-01-12T05:09:25.694Z,31.67
2019-01-12T05:11:54.771Z,31.57
2019-01-12T05:14:23.860Z,31.40
2019-01-12T05:16:53.003Z,32.23
2019-01-12T05:19:22.099Z,34.80
2019-01-12T05:21:51.174Z,29.80
2019-01-12T05:24:20.294Z,36.17
2019-01-12T05:26:49.367Z,37.10
2019-01-12T05:29:18.450Z,38.10
2019-01-12T05:31:47.631Z,40.93
2019-01-12T05:34:16.957Z,39.97
2019-01-12T05:36:46.121Z,34.57
2019-01-12T05:39:15.368Z,33.80
2019-01-12T05:41:44.695Z,35.30
2019-01-12T05:44:13.794Z,37.67
2019-01-12T05:46:42.994Z,33.90
2019-01-12T05:49:12.165Z,32.97
2019-01-12T05:51:41.250Z,34.77
2019-01-12T05:54:10.653Z,36.27
2019-01-12T05:56:39.979Z,32.27
2019-01-12T05:59:09.128Z,32.33
2019-01-12T06:01:38.296Z,29.70
2019-01-12T06:04:07.633Z,28.33
2019-01-12T06:06:36.737Z,32.00
2019-01-12T06:09:06.933Z,25.00
2019-01-12T06:11:36.363Z,26.70
2019-01-12T06:14:05.514Z,27.77
2019-01-12T06:16:34.600Z,28.70
2019-01-12T06:19:03.749Z,26.50
2019-01-12T06:21:32.916Z,28.70
2019-01-12T06:24:02.068Z,25.43
2019-01-12T06:26:31.163Z,30.70
2019-01-12T06:29:00.563Z,30.73
2019-01-12T06:31:29.884Z,32.20
2019-01-12T06:34:18.168Z,25.93
2019-01-12T06:36:47.266Z,23.03
2019-01-12T06:39:16.417Z,21.10
2019-01-12T06:41:45.578Z,26.50
2019-01-12T06:44:14.976Z,30.47
2019-01-12T06:46:44.384Z,23.93
2019-01-12T06:49:13.460Z,27.53
2019-01-12T06:51:42.620Z,29.93
2019-01-12T06:54:12.020Z,33.97
2019-01-12T06:56:41.385Z,30.30
2019-01-12T06:59:10.457Z,31.10
2019-01-12T07:01:39.787Z,33.00
2019-01-12T07:04:09.132Z,37.37
2019-01-12T07:06:38.291Z,34.23
2019-01-12T07:09:07.863Z,35.33
2019-01-12T07:11:37.083Z,32.50
2019-01-12T07:14:06.238Z,31.40
2019-01-12T07:16:35.367Z,39.47
2019-01-12T07:19:04.563Z,26.50
2019-01-12T07:21:33.648Z,30.40
2019-01-12T07:24:02.741Z,30.80
2019-01-12T07:26:31.823Z,31.77
2019-01-12T07:29:00.918Z,32.33
2019-01-12T07:31:29.993Z,33.90
2019-01-12T07:33:59.544Z,31.57
2019-01-12T07:36:28.614Z,31.97
2019-01-12T07:38:58.037Z,27.27
2019-01-12T07:41:27.450Z,26.20
2019-01-12T07:43:56.612Z,23.87
2019-01-12T07:46:25.701Z,25.53
2019-01-12T07:48:54.814Z,24.90
2019-01-12T07:51:23.963Z,20.97
2019-01-12T07:53:53.380Z,21.73
2019-01-12T07:56:24.644Z,23.87
2019-01-12T07:58:53.317Z,23.50
2019-01-12T08:01:22.472Z,21.63
2019-01-12T08:03:51.918Z,19.47
2019-01-12T08:06:21.065Z,47.00
2019-01-12T08:08:50.227Z,33.07
2019-01-12T08:11:19.613Z,34.20
2019-01-12T08:13:49.043Z,31.00
2019-01-12T08:16:18.183Z,33.83
2019-01-12T08:18:47.632Z,22.00
2019-01-12T08:21:16.718Z,24.63
2019-01-12T08:23:45.815Z,22.30
2019-01-12T08:26:14.887Z,31.73
2019-01-12T08:28:44.260Z,29.53
2019-01-12T08:31:13.661Z,31.10
2019-01-12T08:33:42.835Z,29.63
2019-01-12T08:36:11.912Z,36.07
2019-01-12T08:38:41.102Z,29.30
2019-01-12T08:41:29.381Z,30.03
2019-01-12T08:43:58.543Z,23.20
2019-01-12T08:46:28.014Z,28.63
2019-01-12T08:48:57.120Z,28.30
2019-01-12T08:51:26.321Z,28.33
2019-01-12T08:53:55.820Z,28.83
2019-01-12T08:56:25.004Z,24.83
2019-01-12T08:58:54.133Z,31.57
2019-01-12T09:01:23.597Z,24.30
2019-01-12T09:03:52.792Z,21.30
2019-01-12T09:06:21.971Z,23.80
2019-01-12T09:08:51.307Z,25.60
2019-01-12T09:11:20.624Z,31.60
2019-01-12T09:13:50.093Z,30.70
2019-01-12T09:16:19.231Z,30.27
2019-01-12T09:18:48.602Z,34.90
2019-01-12T09:21:17.762Z,31.53
2019-01-12T09:23:47.611Z,30.30
2019-01-12T09:26:16.754Z,27.27
2019-01-12T09:28:45.919Z,32.80
2019-01-12T09:31:15.076Z,23.97
2019-01-12T09:33:44.263Z,32.93
2019-01-12T09:36:13.760Z,24.03
2019-01-12T09:38:43.315Z,19.60
2019-01-12T09:41:12.735Z,19.40
2019-01-12T09:43:41.863Z,21.83
2019-01-12T09:46:11.055Z,24.80
2019-01-12T09:48:40.196Z,19.20
2019-01-12T09:51:09.803Z,18.10
2019-01-12T09:53:38.980Z,15.50
2019-01-12T09:56:08.126Z,17.93
2019-01-12T09:58:37.244Z,25.80
2019-01-12T10:01:06.403Z,19.43
2019-01-12T10:03:35.642Z,18.50
2019-01-12T10:06:04.829Z,17.70
2019-01-12T10:08:34.048Z,21.23
2019-01-12T10:11:03.207Z,22.10
2019-01-12T10:13:32.428Z,21.93
2019-01-12T10:16:01.575Z,33.17
2019-01-12T10:18:30.948Z,23.47
2019-01-12T10:21:00.107Z,33.60
2019-01-12T10:23:29.261Z,31.97
2019-01-12T10:25:58.820Z,24.80
2019-01-12T10:28:28.202Z,27.10
2019-01-12T10:30:57.603Z,27.73
2019-01-12T10:33:27.272Z,28.43
2019-01-12T10:35:56.420Z,48.13
2019-01-12T10:38:25.599Z,28.43
2019-01-12T10:40:54.757Z,30.30
2019-01-12T10:43:24.175Z,27.57
2019-01-12T10:45:53.326Z,29.50
2019-01-12T10:48:22.487Z,28.70
2019-01-12T10:50:51.747Z,29.73
2019-01-12T10:53:20.919Z,30.60
2019-01-12T10:55:50.319Z,30.20
2019-01-12T10:58:19.745Z,31.10
2019-01-12T11:00:48.932Z,32.50
2019-01-12T11:03:19.249Z,34.20
2019-01-12T11:05:48.994Z,28.40
2019-01-12T11:08:18.127Z,33.03
2019-01-12T11:10:47.591Z,35.63
2019-01-12T11:13:17.006Z,34.90
2019-01-12T11:15:46.166Z,28.97
2019-01-12T11:18:15.327Z,34.00
2019-01-12T11:20:44.518Z,35.10
2019-01-12T11:23:13.654Z,29.20
2019-01-12T11:25:43.323Z,31.40
2019-01-12T11:28:12.631Z,33.30
2019-01-12T11:30:42.047Z,34.80
2019-01-12T11:33:11.223Z,28.23
2019-01-12T11:35:40.596Z,31.93
2019-01-12T11:38:09.739Z,33.50
2019-01-12T11:40:38.942Z,28.00
2019-01-12T11:43:08.090Z,28.90
2019-01-12T11:45:37.199Z,26.17
2019-01-12T11:48:07.144Z,31.10
2019-01-12T11:50:36.259Z,30.87
2019-01-12T11:53:05.422Z,30.07
2019-01-12T11:55:34.861Z,30.63
2019-01-12T11:58:04.356Z,28.27
2019-01-12T12:00:33.531Z,30.40
2019-01-12T12:03:02.758Z,28.53
2019-01-12T12:05:31.951Z,15.67
2019-01-12T12:08:01.351Z,12.27
2019-01-12T12:10:30.534Z,23.17
2019-01-12T12:12:59.707Z,18.23
2019-01-12T12:15:28.904Z,21.43
2019-01-12T12:17:57.981Z,19.40
2019-01-12T12:20:27.960Z,15.43
2019-01-12T12:22:57.111Z,21.30
2019-01-12T12:25:26.520Z,17.20
2019-01-12T12:27:55.685Z,20.17
2019-01-12T12:30:30.749Z,12.17
2019-01-12T12:33:00.291Z,12.93
2019-01-12T12:35:29.481Z,13.43
2019-01-12T12:37:58.627Z,13.43
2019-01-12T12:40:27.802Z,15.00
2019-01-12T12:42:57.020Z,10.17
2019-01-12T12:45:27.815Z,6.47
2019-01-12T12:47:57.483Z,7.50
2019-01-12T12:50:27.121Z,10.70
2019-01-12T12:52:56.286Z,7.33
2019-01-12T12:55:25.846Z,7.60
2019-01-12T12:57:55.071Z,7.60
2019-01-12T13:00:25.498Z,4.00
2019-01-12T13:02:54.638Z,6.27
2019-01-12T13:05:23.809Z,6.27
2019-01-12T13:07:53.028Z,4.70
2019-01-12T13:10:25.278Z,7.63
2019-01-12T13:12:54.900Z,8.20
2019-01-12T13:15:24.047Z,7.87
2019-01-12T13:17:53.484Z,5.17
2019-01-12T13:20:22.906Z,6.50
2019-01-12T13:22:52.363Z,8.63
2019-01-12T13:25:21.500Z,8.97
2019-01-12T13:27:50.947Z,5.50
2019-01-12T13:30:29.427Z,3.37
2019-01-12T13:32:58.604Z,3.40
2019-01-12T13:35:28.076Z,4.20
2019-01-12T13:37:57.260Z,3.00
2019-01-12T13:40:27.079Z,3.83
2019-01-12T13:42:56.511Z,3.20
2019-01-12T13:45:25.651Z,5.93
2019-01-12T13:47:55.020Z,6.10
2019-01-12T13:50:25.271Z,5.27
2019-01-12T13:52:54.661Z,6.10
2019-01-12T13:55:23.802Z,4.57
2019-01-12T13:57:53.245Z,3.67
2019-01-12T14:00:26.713Z,4.13
2019-01-12T14:02:56.161Z,5.17
2019-01-12T14:05:25.294Z,4.90
2019-01-12T14:07:56.442Z,4.30
2019-01-12T14:10:25.887Z,4.60
2019-01-12T14:12:55.313Z,5.23
2019-01-12T14:15:24.655Z,6.07
2019-01-12T14:17:53.790Z,5.00
2019-01-12T14:20:24.212Z,5.27
2019-01-12T14:22:53.408Z,5.27
2019-01-12T14:25:22.820Z,5.07
2019-01-12T14:27:54.996Z,5.57
2019-01-12T14:30:23.575Z,4.33
2019-01-12T14:32:53.086Z,5.30
2019-01-12T14:35:22.253Z,4.93
2019-01-12T14:37:51.500Z,5.73
2019-01-12T14:40:20.931Z,5.10
2019-01-12T14:42:50.091Z,5.70
2019-01-12T14:45:20.545Z,5.07
2019-01-12T14:47:50.119Z,3.90
2019-01-12T14:50:19.525Z,5.10
2019-01-12T14:52:49.250Z,4.60
2019-01-12T14:55:18.695Z,5.50
2019-01-12T14:57:48.080Z,5.10
2019-01-12T15:00:18.345Z,3.10
2019-01-12T15:02:47.861Z,4.10
2019-01-12T15:05:17.946Z,4.20
2019-01-12T15:07:47.246Z,4.67
2019-01-12T15:10:17.101Z,4.67
2019-01-12T15:12:46.649Z,4.10
2019-01-12T15:15:16.137Z,4.40
2019-01-12T15:17:45.390Z,4.67
2019-01-12T15:20:18.349Z,5.23
2019-01-12T15:22:47.491Z,4.00
2019-01-12T15:25:16.690Z,7.37
2019-01-12T15:27:45.932Z,6.80
2019-01-12T15:30:19.417Z,4.63
2019-01-12T15:32:48.554Z,3.47
2019-01-12T15:35:18.139Z,2.73
2019-01-12T15:37:47.767Z,3.20
2019-01-12T15:40:17.346Z,3.70
2019-01-12T15:42:46.803Z,2.93
2019-01-12T15:45:19.858Z,3.47
2019-01-12T15:47:49.077Z,4.97
2019-01-12T15:50:19.367Z,5.07
2019-01-12T15:52:48.502Z,5.97
2019-01-12T15:55:18.095Z,5.60
2019-01-12T15:57:47.579Z,4.67
2019-01-12T16:00:35.876Z,5.03
2019-01-12T16:03:05.046Z,5.50
2019-01-12T16:05:34.232Z,6.73
2019-01-12T16:08:03.367Z,6.10
2019-01-12T16:10:33.529Z,6.50
2019-01-12T16:13:02.858Z,6.03
2019-01-12T16:15:32.027Z,6.40
2019-01-12T16:18:01.288Z,5.53
2019-01-12T16:20:34.938Z,8.47
2019-01-12T16:23:04.744Z,8.90
2019-01-12T16:25:34.248Z,7.93
2019-01-12T16:28:03.382Z,8.03
2019-01-12T16:30:32.751Z,6.33
2019-01-12T16:33:01.956Z,7.50
2019-01-12T16:35:31.096Z,8.07
2019-01-12T16:38:00.528Z,11.17
2019-01-12T16:40:29.973Z,8.13
2019-01-12T16:42:59.578Z,7.07
2019-01-12T16:45:28.715Z,7.87
2019-01-12T16:47:57.929Z,10.50
2019-01-12T16:50:27.114Z,9.50
2019-01-12T16:52:56.267Z,10.13
2019-01-12T16:55:25.419Z,7.77
2019-01-12T16:57:54.895Z,9.13
2019-01-12T17:00:28.419Z,7.27
2019-01-12T17:02:58.077Z,8.37
2019-01-12T17:05:27.221Z,9.10
2019-01-12T17:07:56.423Z,6.40
2019-01-12T17:10:25.595Z,6.20
2019-01-12T17:12:55.067Z,5.67
2019-01-12T17:15:24.367Z,5.50
2019-01-12T17:17:53.531Z,7.43
2019-01-12T17:20:23.828Z,5.20
2019-01-12T17:22:53.875Z,5.27
2019-01-12T17:25:23.012Z,5.97
2019-01-12T17:27:52.370Z,7.70
2019-01-12T17:30:22.249Z,6.70
2019-01-12T17:32:51.657Z,6.60
2019-01-12T17:35:21.152Z,5.53
2019-01-12T17:37:50.298Z,6.73
2019-01-12T17:40:19.480Z,7.07
2019-01-12T17:42:48.884Z,7.50
2019-01-12T17:45:19.026Z,8.20
2019-01-12T17:47:48.136Z,7.70
2019-01-12T17:50:18.376Z,10.20
2019-01-12T17:52:47.654Z,9.40
2019-01-12T17:55:18.364Z,7.53
2019-01-12T17:57:47.495Z,7.30
2019-01-12T18:00:21.552Z,7.07
2019-01-12T18:02:50.947Z,7.93
2019-01-12T18:05:20.073Z,8.97
2019-01-12T18:07:49.518Z,8.63
2019-01-12T18:10:18.851Z,8.40
2019-01-12T18:12:48.521Z,7.90
2019-01-12T18:15:17.950Z,7.67
2019-01-12T18:17:47.088Z,7.23
2019-01-12T18:20:16.267Z,6.30
2019-01-12T18:22:45.494Z,6.70
2019-01-12T18:25:14.668Z,8.17
2019-01-12T18:27:43.852Z,7.13
2019-01-12T18:30:14.980Z,8.73
2019-01-12T18:32:44.167Z,6.87
2019-01-12T18:35:13.552Z,8.70
2019-01-12T18:37:42.725Z,7.50
2019-01-12T18:40:12.990Z,6.90
2019-01-12T18:42:42.203Z,8.43
2019-01-12T18:45:12.038Z,14.83
2019-01-12T18:47:41.470Z,9.07
2019-01-12T18:50:12.062Z,5.73
2019-01-12T18:52:41.512Z,7.33
2019-01-12T18:55:10.989Z,7.03
2019-01-12T18:57:40.529Z,6.63
2019-01-12T19:00:18.394Z,6.30
2019-01-12T19:02:42.961Z,11.00
2019-01-12T19:05:12.425Z,6.17
2019-01-12T19:07:41.587Z,7.67
2019-01-12T19:10:10.938Z,7.90
2019-01-12T19:12:40.075Z,7.33
2019-01-12T19:15:10.723Z,10.97
2019-01-12T19:17:40.181Z,9.00
2019-01-12T19:20:09.329Z,8.70
2019-01-12T19:22:38.722Z,8.00
2019-01-12T19:25:08.237Z,7.50
2019-01-12T19:27:37.308Z,7.60
2019-01-12T19:30:08.164Z,9.00
2019-01-12T19:32:37.903Z,9.80
2019-01-12T19:35:07.319Z,9.50
2019-01-12T19:37:36.729Z,6.47
2019-01-12T19:40:07.736Z,7.80
2019-01-12T19:42:37.149Z,8.30
2019-01-12T19:45:06.835Z,11.33
2019-01-12T19:47:35.983Z,7.97
2019-01-12T19:50:05.835Z,7.33
2019-01-12T19:52:35.050Z,5.60
2019-01-12T19:55:04.947Z,8.80
2019-01-12T19:57:34.356Z,7.80
2019-01-12T20:00:04.445Z,6.67
2019-01-12T20:02:33.787Z,7.90
2019-01-12T20:05:03.122Z,9.20
2019-01-12T20:07:32.556Z,6.10
2019-01-12T20:10:01.748Z,5.43
2019-01-12T20:12:31.197Z,9.90
2019-01-12T20:15:00.387Z,8.27
2019-01-12T20:17:29.531Z,8.33
2019-01-12T20:19:58.740Z,7.50
2019-01-12T20:22:27.851Z,6.60
2019-01-12T20:24:57.036Z,10.47
2019-01-12T20:27:33.312Z,6.53
2019-01-12T20:29:57.347Z,7.00
2019-01-12T20:32:40.069Z,7.20
2019-01-12T20:35:14.584Z,6.47
2019-01-12T20:37:53.022Z,8.40
2019-01-12T20:40:25.587Z,8.40
2019-01-12T20:43:13.673Z,6.20
2019-01-12T20:45:54.104Z,5.57
2019-01-12T20:48:42.412Z,6.90
2019-01-12T20:51:29.619Z,5.70
2019-01-12T20:54:23.965Z,5.17
2019-01-12T20:57:12.279Z,5.30
2019-01-12T20:59:46.655Z,3.17
2019-01-12T21:02:33.828Z,4.23
2019-01-12T21:05:34.306Z,4.17
2019-01-12T21:08:07.396Z,3.57
2019-01-12T21:10:42.042Z,4.33
2019-01-12T21:13:29.006Z,3.53
2019-01-12T21:16:03.566Z,3.90
2019-01-12T21:18:32.726Z,2.97
2019-01-12T21:21:02.324Z,3.67
2019-01-12T21:23:31.717Z,3.87
2019-01-12T21:26:00.843Z,2.30
2019-01-12T21:28:30.006Z,2.80
2019-01-12T21:30:59.134Z,2.40
2019-01-12T21:33:28.261Z,3.87
2019-01-12T21:35:57.328Z,2.07
2019-01-12T21:38:26.520Z,7.90
2019-01-12T21:40:55.704Z,11.63
2019-01-12T21:43:25.038Z,14.67
2019-01-12T21:45:54.823Z,8.93
2019-01-12T21:48:24.203Z,7.83
2019-01-12T21:50:53.612Z,5.40
2019-01-12T21:53:22.795Z,3.20
2019-01-12T21:55:52.182Z,1.60
2019-01-12T21:58:21.335Z,2.33
2019-01-12T22:00:50.906Z,5.30
2019-01-12T22:03:20.062Z,4.57
2019-01-12T22:05:49.247Z,3.00
2019-01-12T22:08:18.415Z,3.60
2019-01-12T22:10:47.900Z,2.07
2019-01-12T22:13:17.087Z,2.43
2019-01-12T22:15:46.191Z,1.90
2019-01-12T22:18:15.346Z,1.80
2019-01-12T22:23:12.646Z,1.30
2019-01-12T22:25:41.713Z,1.70
2019-01-12T22:28:11.075Z,1.63
2019-01-12T22:30:40.150Z,1.40
